BUCHANAN DAM (BUC)

Elevation: 450' · CHOWCHILLA R basin · Operator: US Army Corps of Engineers

Provisional data, subject to change.
Query executed Friday at 17:32:35   clock

Select a sensor type for a plot of data.
Note: Reservoir Flows are daily averages.

Earlier

Date RES ELE    STORAGE    RES CHG    TOC STO    ABV TOC    OUTFLOW    INFLOW    PPT INC    TEMP MN    TEMP MX   
 FEET   AF   AF   AF   AF   CFS   CFS   INCHES   DEG F   DEG F  
01/28/2015 469.46 11903 6 111964 -100061 0 4 -- 5 16
01/29/2015 469.47 11908 5 112143 -100235 0 4 -- 6 17
01/30/2015 469.48 11913 5 112321 -100408 0 4 -- 5 17
01/31/2015 469.48 11913 0 112500 -100587 0 1 -- 6 18
02/01/2015 469.49 11918 5 112679 -100761 0 4 -- 5 20
02/02/2015 469.49 11918 0 112857 -100939 0 1 -- 6 20
02/03/2015 469.50 11924 6 113036 -101112 0 4 -- 7 20
02/04/2015 469.51 11929 5 113214 -101285 0 4 -- 6 25
02/05/2015 469.51 11929 0 113393 -101464 0 2 -- 8 24
02/06/2015 469.50 11924 -5 113571 -101647 0 -0 -- 13 22
02/07/2015 469.58 11966 42 113750 -101784 0 22 -- 13 19
02/08/2015 469.63 11993 27 113333 -101340 0 15 -- 13 21
02/09/2015 469.66 12009 16 113450 -101441 0 10 -- 10 19
02/10/2015 469.71 12035 26 113705 -101670 0 14 -- 4 16
02/11/2015 469.76 12062 27 113961 -101899 0 14 -- -18 19
02/12/2015 469.79 12078 16 114198 -102120 0 10 -- 6 22
02/13/2015 469.81 12089 11 114436 -102347 0 7 -- 6 23
02/14/2015 469.83 12099 10 114682 -102583 0 7 -- 7 23
02/15/2015 469.85 12110 11 114941 -102831 0 7 -- 8 23
02/16/2015 469.86 12115 5 115200 -103085 0 4 -- 8 23
02/17/2015 469.88 12126 6 115456 -103335 0 7 -- 8 22
02/18/2015 469.89 12131 10 115714 -103583 0 4 -- 5 17
02/19/2015 469.90 12137 -- 115893 -- 0 4 -- 6 19
02/20/2015 469.91 12142 -- 116071 -103929 0 3 -- 8 12
02/21/2015 469.92 12147 5 116250 -- -- -- -- -- --
02/22/2015 469.95 12164 17 116429 -- 0 9 -- 6 13
02/23/2015 469.96 12169 5 116607 -104438 0 4 -- 5 14
02/24/2015 469.96 12169 0 116786 -104617 0 2 -- 2 17
02/25/2015 469.97 12174 -- 116964 -104790 0 4 -- 4 18
02/26/2015 469.96 12169 -5 117143 -104974 -- -- -- -- --
02/27/2015 -- -- -- -- -- -- -- -- -- --

Later | Latest

Warning! This data is preliminary and subject to revision.

Show BUC Map | Plot BUC Data | 1 Month BUC Data | Real-Time BUC Data | BUC Info